DTTX/SFA METAR and TAF weather

Enter ICAO airport designator
Station Type Date Time Source
DTTX METAR 2019/04/22 20:00 UTC NOAA

DTTX 222000Z 21006KT 8000 SCT030 24/10 Q1002 NOSIG


Station Type Date Time Source
DTTX Decoded METAR 2019/04/22 20:00 UTC NOAA

Sfax El-Maou, Tunisia (DTTX) 34-43N 010-41E 23M
Apr 22, 2019 - 04:00 PM EDT / 2019.04.22 2000 UTC
Wind: from the SSW (210 degrees) at 7 MPH (6 KT):0
Visibility: 4 mile(s):0
Sky conditions: partly cloudy
Temperature: 75 F (24 C)
Dew Point: 50 F (10 C)
Relative Humidity: 41%
Pressure (altimeter): 29.59 in. Hg (1002 hPa)
ob: DTTX 222000Z 21006KT 8000 SCT030 24/10 Q1002 NOSIG
cycle: 20

Station Type Date Time Source
DTTX TAF 2019/04/22 18:24 UTC NOAA

TAF DTTX 221700Z 2218/2318 23020G30KT 5000 SCT030 PROB30
TEMPO 2218/2220 20027G39KT 3000 SA
BECMG 2219/2221 18010KT
BECMG 2301/2303 06014KT

Example: see airport list